Time;durP1;ratioP1;P1;durP2;ratioP2;P2;SDS_P1;SDS_P2;PMS_P1;PMS_P2;Temp;Humidity;BMP_temperature;BMP_pressure;BME280_temperature;BME280_humidity;BME280_pressure;Samples;Min_cycle;Max_cycle;Signal;HPM_P1;HPM_P2
2022/03/15 00:00:46;;;;;;;30.25;9.95;;;4.40;99.90;;;;;;5091022;28;20048;-69
2022/03/15 00:03:12;;;;;;;31.92;10.63;;;4.40;99.90;;;;;;5087044;28;20040;-68
2022/03/15 00:05:38;;;;;;;25.85;10.02;;;4.30;99.90;;;;;;5104367;28;20102;-68
2022/03/15 00:08:06;;;;;;;28.38;10.50;;;4.30;99.90;;;;;;5104126;28;20047;-69
2022/03/15 00:10:32;;;;;;;28.50;11.05;;;4.30;99.90;;;;;;5104758;28;20311;-69
2022/03/15 00:12:58;;;;;;;28.15;10.18;;;4.20;99.90;;;;;;5103052;28;20104;-70
2022/03/15 00:15:25;;;;;;;30.67;8.85;;;4.20;99.90;;;;;;5084100;28;20049;-69
2022/03/15 00:17:51;;;;;;;23.98;10.18;;;4.20;99.90;;;;;;5103484;28;20100;-69
2022/03/15 00:20:23;;;;;;;22.05;11.15;;;4.10;99.90;;;;;;5104207;28;20044;-69
2022/03/15 00:22:50;;;;;;;25.40;10.55;;;4.10;99.90;;;;;;5103752;28;20074;-70
2022/03/15 00:25:17;;;;;;;19.95;9.02;;;4.10;99.90;;;;;;5084672;28;20542;-69
2022/03/15 00:27:47;;;;;;;27.90;10.82;;;4.00;99.90;;;;;;5083761;28;20048;-70
2022/03/15 00:30:14;;;;;;;25.83;10.82;;;4.00;99.90;;;;;;5084130;28;20057;-69
2022/03/15 00:32:41;;;;;;;31.20;11.20;;;4.00;99.90;;;;;;5083868;28;20044;-69
2022/03/15 00:35:12;;;;;;;27.85;10.55;;;4.00;99.90;;;;;;5101377;28;20048;-69
2022/03/15 00:37:38;;;;;;;30.85;9.65;;;4.00;99.90;;;;;;5101821;28;20048;-69
2022/03/15 00:40:05;;;;;;;25.20;9.35;;;4.00;99.90;;;;;;5104211;28;20087;-69
2022/03/15 00:42:31;;;;;;;28.85;10.65;;;3.90;99.90;;;;;;5103802;28;20056;-69
2022/03/15 00:45:03;;;;;;;26.90;11.40;;;3.90;99.90;;;;;;5103997;28;20134;-69
2022/03/15 00:47:29;;;;;;;33.15;10.07;;;3.80;99.90;;;;;;5100139;28;20052;-69
2022/03/15 00:49:55;;;;;;;32.17;11.70;;;3.70;99.90;;;;;;5083642;28;20098;-70
2022/03/15 00:52:21;;;;;;;28.13;11.15;;;3.70;99.90;;;;;;5083678;28;20044;-69
2022/03/15 00:54:47;;;;;;;29.80;11.43;;;3.70;99.90;;;;;;5087702;28;20036;-70
2022/03/15 00:57:13;;;;;;;40.53;12.13;;;3.70;99.90;;;;;;5087749;28;20071;-69
2022/03/15 00:59:39;;;;;;;34.60;11.88;;;3.80;99.90;;;;;;5108006;28;20072;-69
2022/03/15 01:02:05;;;;;;;32.05;12.32;;;3.70;99.90;;;;;;5107876;28;20101;-69
2022/03/15 01:04:31;;;;;;;33.80;12.05;;;3.70;99.90;;;;;;5107538;28;20059;-69
2022/03/15 01:06:57;;;;;;;33.80;12.13;;;3.70;99.90;;;;;;5107188;28;20047;-70
2022/03/15 01:09:22;;;;;;;34.10;13.30;;;3.80;99.90;;;;;;5088309;28;20044;-70
2022/03/15 01:11:48;;;;;;;38.53;12.77;;;3.80;99.90;;;;;;5087004;28;20079;-70
2022/03/15 01:14:14;;;;;;;30.23;12.73;;;3.70;99.90;;;;;;5087377;28;20066;-69
2022/03/15 01:16:40;;;;;;;47.00;14.27;;;3.70;99.90;;;;;;5087089;28;20037;-69
2022/03/15 01:19:07;;;;;;;38.33;14.90;;;3.70;99.90;;;;;;5103344;28;20097;-69
2022/03/15 01:21:35;;;;;;;44.22;12.48;;;3.60;99.90;;;;;;5087227;28;20051;-70
2022/03/15 01:24:01;;;;;;;;;;;3.70;99.90;;;;;;5087394;28;20048;-69
2022/03/15 01:26:26;;;;;;;31.80;13.35;;;3.60;99.90;;;;;;5086672;28;19952;-70
2022/03/15 01:28:52;;;;;;;43.35;15.73;;;3.60;99.90;;;;;;5100810;28;20047;-69
2022/03/15 01:31:18;;;;;;;40.58;16.80;;;3.60;99.90;;;;;;5107308;28;20064;-70
2022/03/15 01:33:43;;;;;;;41.03;15.15;;;3.70;99.90;;;;;;5107455;28;20048;-70
2022/03/15 01:36:09;;;;;;;42.20;15.30;;;3.60;99.90;;;;;;5106768;28;20047;-69
2022/03/15 01:38:35;;;;;;;46.08;16.30;;;3.60;99.90;;;;;;5093504;28;20193;-69
2022/03/15 01:41:01;;;;;;;36.97;16.48;;;3.60;99.90;;;;;;5086693;28;20441;-69
2022/03/15 01:43:27;;;;;;;43.17;18.30;;;3.60;99.90;;;;;;5086430;28;20044;-69
2022/03/15 01:45:53;;;;;;;36.67;18.30;;;3.60;99.90;;;;;;5086652;28;20048;-69
2022/03/15 01:48:20;;;;;;;44.85;17.83;;;3.60;99.90;;;;;;5097443;28;20048;-70
2022/03/15 01:50:46;;;;;;;41.13;17.88;;;3.70;99.90;;;;;;5106853;28;20126;-69
2022/03/15 01:53:15;;;;;;;47.83;16.05;;;3.60;99.90;;;;;;5106301;28;20048;-70
2022/03/15 01:55:41;;;;;;;40.90;17.33;;;3.60;99.90;;;;;;5106833;28;20092;-69
2022/03/15 01:58:07;;;;;;;42.08;16.15;;;3.60;99.90;;;;;;5095901;28;20119;-70
2022/03/15 02:00:33;;;;;;;48.80;17.65;;;3.60;99.90;;;;;;5093524;28;20047;-69
2022/03/15 02:02:58;;;;;;;41.35;18.65;;;3.60;99.90;;;;;;5104954;28;20129;-69
2022/03/15 02:05:24;;;;;;;50.45;20.65;;;3.60;99.90;;;;;;5105944;28;20040;-69
2022/03/15 02:07:50;;;;;;;48.03;17.60;;;3.60;99.90;;;;;;5099411;28;20062;-69
2022/03/15 02:10:16;;;;;;;43.38;20.38;;;3.70;99.90;;;;;;5086210;28;20379;-69
2022/03/15 02:12:42;;;;;;;43.05;19.48;;;3.70;99.90;;;;;;5086966;28;20079;-68
2022/03/15 02:15:08;;;;;;;46.60;19.77;;;3.70;99.90;;;;;;5086402;28;20127;-69
2022/03/15 02:17:36;;;;;;;44.22;19.83;;;3.70;99.90;;;;;;5089806;28;20044;-69
2022/03/15 02:20:06;;;;;;;;;;;3.60;99.90;;;;;;5105555;28;20066;-69
2022/03/15 02:22:31;;;;;;;;;;;3.70;99.90;;;;;;5106142;28;19936;-69
2022/03/15 02:24:57;;;;;;;36.55;19.23;;;3.80;99.90;;;;;;5104939;28;19935;-69
2022/03/15 02:27:24;;;;;;;56.38;23.75;;;3.80;99.90;;;;;;5105303;28;20069;-69
2022/03/15 02:29:50;;;;;;;41.63;19.38;;;4.00;99.90;;;;;;5106591;28;20235;-70
2022/03/15 02:32:16;;;;;;;44.08;19.30;;;3.90;99.90;;;;;;5105926;28;20035;-69
2022/03/15 02:34:41;;;;;;;45.50;21.25;;;3.90;99.90;;;;;;5105993;28;20119;-69
2022/03/15 02:37:07;;;;;;;37.60;21.25;;;3.90;99.90;;;;;;5069381;28;20052;-69
2022/03/15 02:39:33;;;;;;;46.20;19.85;;;3.90;99.90;;;;;;5085838;28;20051;-69
2022/03/15 02:41:59;;;;;;;42.63;20.98;;;3.90;99.90;;;;;;5085355;28;20044;-68
2022/03/15 02:44:24;;;;;;;46.78;22.05;;;4.00;99.90;;;;;;5085799;28;20044;-69
2022/03/15 02:46:50;;;;;;;38.00;20.65;;;4.10;99.90;;;;;;5087685;28;20036;-69
2022/03/15 02:49:16;;;;;;;49.40;20.75;;;4.10;99.90;;;;;;5086116;28;20125;-69
2022/03/15 02:51:42;;;;;;;38.40;19.65;;;4.10;99.90;;;;;;5084680;28;20059;-68
2022/03/15 02:54:13;;;;;;;39.88;18.73;;;4.20;99.90;;;;;;5085372;28;20052;-68
2022/03/15 02:56:44;;;;;;;34.63;18.77;;;4.30;99.90;;;;;;5098256;28;20066;-68
2022/03/15 02:59:15;;;;;;;48.92;18.00;;;4.40;99.90;;;;;;5106023;28;20042;-68
2022/03/15 03:01:45;;;;;;;42.83;19.27;;;4.40;99.90;;;;;;5105212;28;20055;-68
2022/03/15 03:04:11;;;;;;;39.15;18.50;;;4.50;99.90;;;;;;5105501;28;20054;-70
2022/03/15 03:06:43;;;;;;;30.83;17.40;;;4.50;99.90;;;;;;5091573;28;20104;-69
2022/03/15 03:09:11;;;;;;;30.25;16.45;;;4.50;99.90;;;;;;5087669;28;20040;-69
2022/03/15 03:11:37;;;;;;;39.40;17.45;;;4.60;99.90;;;;;;5084709;28;20044;-68
2022/03/15 03:14:04;;;;;;;48.90;17.20;;;4.60;99.90;;;;;;5085334;28;20607;-68
2022/03/15 03:16:30;;;;;;;33.58;16.25;;;4.70;99.90;;;;;;5098077;28;20044;-68
2022/03/15 03:18:58;;;;;;;35.38;16.38;;;4.80;99.90;;;;;;5105223;28;20135;-69
2022/03/15 03:21:28;;;;;;;35.63;16.30;;;4.80;99.90;;;;;;5104313;28;20040;-68
2022/03/15 03:23:56;;;;;;;32.28;17.70;;;4.80;99.90;;;;;;5104941;28;20036;-68
2022/03/15 03:26:23;;;;;;;34.75;15.35;;;4.80;99.90;;;;;;5089757;28;20057;-68
2022/03/15 03:28:50;;;;;;;38.22;15.85;;;4.90;99.90;;;;;;5085005;28;20173;-68
2022/03/15 03:31:16;;;;;;;30.30;14.52;;;4.90;99.90;;;;;;5084387;28;20078;-68
2022/03/15 03:33:43;;;;;;;28.10;13.85;;;4.90;99.90;;;;;;5088611;28;20055;-69
2022/03/15 03:36:09;;;;;;;27.08;13.38;;;5.00;99.90;;;;;;5104308;28;20107;-69
2022/03/15 03:38:36;;;;;;;30.38;13.40;;;5.10;99.90;;;;;;5104926;28;20055;-69
2022/03/15 03:41:03;;;;;;;30.73;11.93;;;5.30;99.90;;;;;;5104757;28;20071;-68
2022/03/15 03:43:29;;;;;;;32.45;12.25;;;5.40;99.90;;;;;;5100787;28;20295;-69
2022/03/15 03:45:56;;;;;;;29.90;12.50;;;5.30;99.90;;;;;;5083039;28;20044;-69
2022/03/15 03:48:23;;;;;;;34.65;13.20;;;5.40;99.90;;;;;;5084046;28;20086;-68
2022/03/15 03:50:50;;;;;;;27.58;13.48;;;5.40;99.90;;;;;;5084125;28;20135;-68
2022/03/15 03:53:18;;;;;;;30.25;13.57;;;5.40;99.90;;;;;;5083213;28;20075;-69
2022/03/15 03:55:44;;;;;;;27.88;12.75;;;5.40;99.90;;;;;;5084387;28;20052;-68
2022/03/15 03:58:10;;;;;;;29.08;12.45;;;5.40;99.90;;;;;;5084170;28;20083;-68
2022/03/15 04:00:37;;;;;;;27.08;13.30;;;5.30;99.90;;;;;;5084093;28;20036;-68
2022/03/15 04:03:03;;;;;;;26.05;14.05;;;5.30;99.90;;;;;;5084128;28;20051;-69
2022/03/15 04:05:35;;;;;;;34.63;15.07;;;5.30;99.90;;;;;;5103535;28;20571;-68
2022/03/15 04:08:01;;;;;;;26.80;13.70;;;5.40;99.90;;;;;;5103808;28;20044;-68
2022/03/15 04:10:28;;;;;;;30.63;13.55;;;5.50;99.90;;;;;;5104601;28;20048;-69
2022/03/15 04:12:55;;;;;;;40.58;15.68;;;5.60;99.90;;;;;;5103903;28;20048;-68
2022/03/15 04:15:24;;;;;;;34.73;15.30;;;5.60;99.90;;;;;;5091152;28;20457;-69
2022/03/15 04:17:50;;;;;;;28.25;12.60;;;5.80;99.90;;;;;;5104197;28;20051;-69
2022/03/15 04:20:16;;;;;;;35.92;13.40;;;5.80;99.90;;;;;;5104339;28;20036;-68
2022/03/15 04:22:43;;;;;;;32.67;14.38;;;5.70;99.90;;;;;;5103559;28;20051;-69
2022/03/15 04:25:09;;;;;;;32.17;14.40;;;5.70;99.90;;;;;;5090271;28;20449;-69
2022/03/15 04:27:35;;;;;;;33.28;15.77;;;5.70;99.90;;;;;;5105930;28;20043;-69
2022/03/15 04:30:02;;;;;;;33.47;15.60;;;5.80;99.90;;;;;;5108525;28;20040;-69
2022/03/15 04:32:28;;;;;;;36.22;15.15;;;5.80;99.90;;;;;;5108396;28;20032;-69
2022/03/15 04:34:54;;;;;;;39.45;15.40;;;5.80;99.90;;;;;;5105193;28;20576;-68
2022/03/15 04:37:20;;;;;;;34.53;15.70;;;5.70;99.90;;;;;;5107716;28;20082;-68
2022/03/15 04:39:46;;;;;;;31.00;15.55;;;5.90;99.90;;;;;;5108670;28;20055;-69
2022/03/15 04:42:12;;;;;;;31.63;15.88;;;6.00;99.90;;;;;;5107561;28;20139;-69
2022/03/15 04:44:37;;;;;;;33.28;15.75;;;5.90;99.90;;;;;;5094277;28;20352;-69
2022/03/15 04:47:04;;;;;;;35.53;15.45;;;6.00;99.90;;;;;;5087823;28;20055;-70
2022/03/15 04:49:29;;;;;;;33.10;13.43;;;5.90;99.90;;;;;;5087914;28;20059;-69
2022/03/15 04:51:55;;;;;;;29.45;13.45;;;5.90;99.90;;;;;;5087367;28;20087;-70
2022/03/15 04:54:21;;;;;;;34.88;13.65;;;6.00;99.90;;;;;;5100190;28;20047;-69
2022/03/15 04:56:46;;;;;;;35.00;13.82;;;6.00;99.90;;;;;;5107586;28;20071;-68
2022/03/15 04:59:12;;;;;;;30.15;12.15;;;6.00;99.90;;;;;;5107995;28;20090;-70
2022/03/15 05:01:38;;;;;;;32.60;14.13;;;6.00;99.90;;;;;;5101584;28;20044;-69
2022/03/15 05:04:03;;;;;;;36.25;16.20;;;6.00;99.90;;;;;;5100567;28;20051;-69
2022/03/15 05:06:29;;;;;;;30.35;13.70;;;6.00;99.90;;;;;;5089950;28;20072;-69
2022/03/15 05:08:55;;;;;;;34.28;14.00;;;6.00;99.90;;;;;;5103201;28;20511;-68
2022/03/15 05:11:21;;;;;;;37.85;14.25;;;5.90;99.90;;;;;;5104476;28;20112;-68
2022/03/15 05:13:48;;;;;;;32.55;15.13;;;5.90;99.90;;;;;;5097449;28;20040;-69
2022/03/15 05:16:18;;;;;;;28.08;14.32;;;5.90;99.90;;;;;;5107338;28;20086;-69
2022/03/15 05:18:48;;;;;;;29.60;13.82;;;5.90;99.90;;;;;;5106209;28;20688;-70
2022/03/15 05:21:16;;;;;;;34.80;14.38;;;5.80;99.90;;;;;;5099845;28;20174;-69
2022/03/15 05:23:46;;;;;;;29.80;13.63;;;5.90;99.90;;;;;;5099348;28;20054;-69
2022/03/15 05:26:13;;;;;;;30.65;14.23;;;5.80;99.90;;;;;;5107646;28;20103;-69
2022/03/15 05:28:39;;;;;;;28.73;14.40;;;5.80;99.90;;;;;;5107296;28;20056;-69
2022/03/15 05:31:05;;;;;;;40.13;15.23;;;5.80;99.90;;;;;;5090232;28;20318;-68
2022/03/15 05:33:31;;;;;;;35.97;15.23;;;5.80;99.90;;;;;;5104062;28;20470;-70
2022/03/15 05:35:57;;;;;;;30.02;14.40;;;5.70;99.90;;;;;;5105266;28;20040;-70
2022/03/15 05:38:22;;;;;;;33.90;15.18;;;5.70;99.90;;;;;;5100998;28;20055;-69
2022/03/15 05:40:48;;;;;;;26.85;14.23;;;5.70;99.90;;;;;;5106950;28;20107;-69
2022/03/15 05:43:14;;;;;;;30.92;15.30;;;5.70;99.90;;;;;;5102651;28;20051;-68
2022/03/15 05:45:41;;;;;;;30.70;15.10;;;5.70;99.90;;;;;;5106986;28;20050;-69
2022/03/15 05:48:07;;;;;;;30.25;15.18;;;5.60;99.90;;;;;;5106796;28;20126;-69
2022/03/15 05:50:33;;;;;;;26.73;15.70;;;5.60;99.90;;;;;;5106043;28;20079;-69
2022/03/15 05:53:04;;;;;;;30.90;16.13;;;5.70;99.90;;;;;;5106139;28;20044;-69
2022/03/15 05:55:33;;;;;;;41.85;15.73;;;5.60;99.90;;;;;;5107224;28;20040;-69
2022/03/15 05:57:59;;;;;;;34.03;17.05;;;5.60;99.90;;;;;;5086622;28;20045;-70
2022/03/15 06:00:26;;;;;;;36.13;16.70;;;5.60;99.90;;;;;;5089405;28;20070;-69
2022/03/15 06:02:52;;;;;;;36.25;17.35;;;5.60;99.90;;;;;;5092920;28;20040;-69
2022/03/15 06:05:18;;;;;;;36.28;16.55;;;5.60;99.90;;;;;;5099400;28;20044;-69
2022/03/15 06:07:48;;;;;;;29.75;16.08;;;5.60;99.90;;;;;;5093436;28;20059;-69
2022/03/15 06:10:15;;;;;;;33.35;17.98;;;5.60;99.90;;;;;;5085739;28;20062;-69
2022/03/15 06:12:42;;;;;;;39.10;16.93;;;5.60;99.90;;;;;;5086132;28;20220;-69
2022/03/15 06:15:09;;;;;;;39.15;16.60;;;5.60;99.90;;;;;;5084922;28;20036;-69
2022/03/15 06:17:50;;;;;;;33.88;15.85;;;5.60;99.90;;;;;;5094435;28;20132;-70
2022/03/15 06:20:18;;;;;;;28.92;16.42;;;5.60;99.90;;;;;;5106201;28;20051;-69
2022/03/15 06:22:45;;;;;;;34.70;17.45;;;5.60;99.90;;;;;;5105771;28;20492;-69
2022/03/15 06:25:10;;;;;;;35.78;18.42;;;5.50;99.90;;;;;;5105436;28;20522;-69
2022/03/15 06:27:37;;;;;;;46.10;18.75;;;5.50;99.90;;;;;;5085649;28;20044;-69
2022/03/15 06:30:04;;;;;;;33.60;18.08;;;5.50;99.90;;;;;;5085659;28;20044;-69
2022/03/15 06:32:31;;;;;;;36.75;19.55;;;5.50;99.90;;;;;;5085893;28;20036;-69
2022/03/15 06:34:58;;;;;;;42.63;19.55;;;5.50;99.90;;;;;;5086125;28;20052;-68
2022/03/15 06:37:28;;;;;;;40.97;19.58;;;5.60;99.90;;;;;;5101805;28;20109;-69
2022/03/15 06:39:54;;;;;;;35.65;19.13;;;5.60;99.90;;;;;;5098635;28;20071;-69
2022/03/15 06:42:21;;;;;;;41.03;20.55;;;5.60;99.90;;;;;;5085390;28;20045;-69
2022/03/15 06:44:47;;;;;;;43.25;20.75;;;5.60;99.90;;;;;;5085503;28;20050;-68
2022/03/15 06:47:13;;;;;;;32.95;18.95;;;5.60;99.90;;;;;;5096234;28;20040;-69
2022/03/15 06:49:39;;;;;;;40.42;20.23;;;5.70;99.90;;;;;;5104694;28;20056;-69
2022/03/15 06:52:05;;;;;;;40.13;19.60;;;5.70;99.90;;;;;;5090122;28;20111;-69
2022/03/15 06:54:31;;;;;;;38.40;19.98;;;5.70;99.90;;;;;;5105597;28;20062;-69
2022/03/15 06:56:57;;;;;;;42.13;19.35;;;5.70;99.90;;;;;;5103262;28;20562;-68
2022/03/15 06:59:23;;;;;;;43.85;22.13;;;5.80;99.90;;;;;;5104809;28;20036;-69
2022/03/15 07:01:49;;;;;;;34.65;18.35;;;5.80;99.90;;;;;;5087697;28;20047;-69
2022/03/15 07:04:17;;;;;;;33.95;19.45;;;5.80;99.90;;;;;;5088710;28;20039;-70
2022/03/15 07:06:44;;;;;;;39.45;20.80;;;5.90;99.90;;;;;;5104030;28;20095;-69
2022/03/15 07:09:10;;;;;;;38.63;19.73;;;5.90;99.90;;;;;;5104165;28;20040;-69
2022/03/15 07:11:36;;;;;;;40.72;20.30;;;6.00;99.90;;;;;;5105057;28;20423;-68
2022/03/15 07:14:03;;;;;;;30.52;18.50;;;6.00;99.90;;;;;;5104234;28;20032;-70
2022/03/15 07:16:29;;;;;;;48.03;22.47;;;6.10;99.90;;;;;;5091850;28;20051;-69
2022/03/15 07:18:57;;;;;;;40.63;20.95;;;6.10;99.90;;;;;;5085107;28;20040;-68
2022/03/15 07:21:23;;;;;;;46.63;21.98;;;6.10;99.90;;;;;;5090448;28;20079;-70
2022/03/15 07:23:48;;;;;;;45.63;21.05;;;6.10;99.90;;;;;;5105002;28;20051;-69
2022/03/15 07:26:14;;;;;;;41.88;21.33;;;6.20;99.90;;;;;;5102224;28;20515;-69
2022/03/15 07:28:40;;;;;;;44.97;22.20;;;6.20;99.90;;;;;;5104593;28;20048;-69
2022/03/15 07:31:06;;;;;;;46.97;25.00;;;6.20;99.90;;;;;;5104973;28;20044;-70
2022/03/15 07:33:32;;;;;;;58.60;24.58;;;6.20;99.90;;;;;;5103859;28;20134;-69
2022/03/15 07:36:02;;;;;;;50.60;25.90;;;6.30;99.90;;;;;;5085470;28;20102;-69
2022/03/15 07:38:28;;;;;;;43.28;23.85;;;6.30;99.90;;;;;;5083339;28;20048;-69
2022/03/15 07:40:54;;;;;;;40.65;24.20;;;6.30;99.90;;;;;;5084281;28;20068;-69
2022/03/15 07:43:23;;;;;;;46.10;25.13;;;6.30;99.90;;;;;;5084043;28;20044;-68
2022/03/15 07:45:49;;;;;;;43.28;22.42;;;6.50;99.90;;;;;;5100895;28;20048;-68
2022/03/15 07:48:16;;;;;;;42.55;21.55;;;6.40;99.90;;;;;;5092486;28;20076;-70
2022/03/15 07:50:42;;;;;;;42.72;20.65;;;6.40;99.90;;;;;;5090786;28;20279;-68
2022/03/15 07:53:07;;;;;;;45.35;20.98;;;6.40;99.90;;;;;;5103146;28;20055;-69
2022/03/15 07:55:34;;;;;;;38.22;19.45;;;6.40;99.90;;;;;;5087825;28;20040;-69
2022/03/15 07:58:00;;;;;;;38.50;19.42;;;6.40;99.90;;;;;;5104318;28;20044;-69
2022/03/15 08:00:26;;;;;;;40.78;19.67;;;6.40;99.90;;;;;;5104615;28;20036;-69
2022/03/15 08:02:52;;;;;;;48.13;19.55;;;6.40;99.90;;;;;;5104429;28;20059;-69
2022/03/15 08:05:19;;;;;;;35.92;18.45;;;6.40;99.90;;;;;;5102218;28;20051;-69
2022/03/15 08:07:44;;;;;;;42.95;19.63;;;6.40;99.90;;;;;;5103520;28;20088;-69
2022/03/15 08:10:10;;;;;;;36.58;19.75;;;6.40;99.90;;;;;;5104435;28;20527;-69
2022/03/15 08:12:37;;;;;;;39.45;20.17;;;6.40;99.90;;;;;;5101807;28;20196;-69
2022/03/15 08:15:05;;;;;;;38.67;21.23;;;6.40;99.90;;;;;;5100976;28;20096;-69
2022/03/15 08:17:33;;;;;;;34.17;19.58;;;6.50;99.90;;;;;;5086522;28;20140;-69
2022/03/15 08:19:58;;;;;;;42.78;21.33;;;6.50;99.90;;;;;;5104008;28;20051;-70
2022/03/15 08:22:30;;;;;;;35.58;20.42;;;6.50;99.90;;;;;;5103397;28;20044;-68
2022/03/15 08:24:56;;;;;;;40.92;20.33;;;6.50;99.90;;;;;;5103319;28;20044;-68
2022/03/15 08:27:22;;;;;;;35.65;20.70;;;6.50;99.90;;;;;;5104907;28;20129;-68
2022/03/15 08:29:48;;;;;;;41.05;22.17;;;6.60;99.90;;;;;;5101607;28;20181;-69
2022/03/15 08:32:14;;;;;;;39.00;22.83;;;6.60;99.90;;;;;;5100814;28;20040;-68
2022/03/15 08:34:41;;;;;;;40.80;21.60;;;6.70;99.90;;;;;;5095063;28;20041;-68
2022/03/15 08:37:06;;;;;;;40.22;22.65;;;6.80;99.90;;;;;;5107542;28;20043;-68
2022/03/15 08:39:32;;;;;;;36.08;21.88;;;6.80;99.90;;;;;;5108657;28;20050;-68
2022/03/15 08:41:58;;;;;;;41.70;22.63;;;6.90;99.90;;;;;;5103157;28;20064;-68
2022/03/15 08:44:24;;;;;;;35.13;22.13;;;7.00;99.90;;;;;;5102502;28;20052;-68
2022/03/15 08:46:50;;;;;;;38.75;23.10;;;7.10;99.90;;;;;;5104942;28;20040;-68
2022/03/15 08:49:17;;;;;;;46.75;24.10;;;7.10;99.90;;;;;;5105288;28;20079;-68
2022/03/15 08:51:44;;;;;;;46.43;22.67;;;7.20;99.90;;;;;;5107293;28;20076;-67
2022/03/15 08:54:10;;;;;;;43.47;24.33;;;7.30;99.90;;;;;;5109369;28;20043;-68
2022/03/15 08:56:41;;;;;;;49.80;23.60;;;7.40;99.90;;;;;;5105908;28;20136;-68
2022/03/15 08:59:09;;;;;;;40.13;22.20;;;7.40;99.90;;;;;;5102882;28;20094;-67
2022/03/15 09:01:35;;;;;;;46.05;22.33;;;7.40;99.90;;;;;;5095960;28;20072;-68
2022/03/15 09:04:02;;;;;;;47.58;24.63;;;7.50;99.90;;;;;;5092982;28;20048;-68
2022/03/15 09:06:27;;;;;;;44.40;23.42;;;7.50;99.90;;;;;;5090759;28;20045;-69
2022/03/15 09:08:53;;;;;;;42.95;24.67;;;7.60;99.90;;;;;;5092264;28;20047;-69
2022/03/15 09:11:19;;;;;;;41.22;23.15;;;7.50;99.90;;;;;;5086574;28;20044;-68
2022/03/15 09:13:45;;;;;;;41.90;23.27;;;7.60;99.90;;;;;;5096600;28;20526;-68
2022/03/15 09:16:12;;;;;;;40.15;23.00;;;7.60;99.90;;;;;;5119794;28;20050;-68
2022/03/15 09:18:38;;;;;;;43.33;23.40;;;7.70;99.90;;;;;;5094328;28;20044;-69
2022/03/15 09:21:06;;;;;;;43.70;25.42;;;7.70;99.90;;;;;;5086683;28;20071;-67
2022/03/15 09:23:32;;;;;;;43.67;25.35;;;7.70;99.90;;;;;;5087418;28;20045;-68
2022/03/15 09:25:58;;;;;;;42.55;25.83;;;7.80;99.90;;;;;;5091078;28;20044;-67
2022/03/15 09:28:23;;;;;;;49.17;25.85;;;7.90;99.90;;;;;;5102471;28;20039;-67
2022/03/15 09:30:49;;;;;;;45.97;25.08;;;8.00;99.90;;;;;;5106950;28;20055;-68
2022/03/15 09:33:15;;;;;;;46.78;25.77;;;8.10;99.90;;;;;;5095721;28;20044;-68
2022/03/15 09:35:42;;;;;;;38.00;23.73;;;8.20;99.90;;;;;;5097197;28;20036;-68
2022/03/15 09:38:08;;;;;;;36.58;23.00;;;8.20;99.90;;;;;;5091298;28;20045;-68
2022/03/15 09:40:35;;;;;;;42.55;24.45;;;8.20;99.90;;;;;;5086639;28;20067;-69
2022/03/15 09:43:03;;;;;;;45.67;22.75;;;8.40;99.90;;;;;;5094755;28;20055;-68
2022/03/15 09:45:31;;;;;;;42.08;22.27;;;8.50;99.90;;;;;;5107208;28;20044;-68
2022/03/15 09:48:00;;;;;;;38.17;23.27;;;8.40;99.90;;;;;;5100928;28;20044;-69
2022/03/15 09:50:25;;;;;;;38.97;22.00;;;8.50;99.90;;;;;;5086376;28;20044;-68
2022/03/15 09:52:56;;;;;;;40.63;23.00;;;8.50;99.90;;;;;;5105406;28;20039;-68
2022/03/15 09:55:23;;;;;;;37.10;22.25;;;8.60;99.90;;;;;;5089447;28;20055;-68
2022/03/15 09:57:51;;;;;;;37.75;21.67;;;8.70;99.90;;;;;;5103493;28;20032;-67
2022/03/15 10:00:17;;;;;;;33.42;22.17;;;8.80;99.90;;;;;;5108403;28;20043;-68
2022/03/15 10:02:44;;;;;;;34.88;23.05;;;8.80;99.90;;;;;;5106347;28;20052;-68
2022/03/15 10:05:11;;;;;;;36.63;23.90;;;9.00;99.90;;;;;;5105435;28;20044;-68
2022/03/15 10:07:38;;;;;;;35.28;21.48;;;9.10;99.90;;;;;;5105174;28;20140;-67
2022/03/15 10:10:10;;;;;;;35.55;21.45;;;9.20;99.90;;;;;;5106302;28;20040;-67
2022/03/15 10:12:36;;;;;;;33.90;21.50;;;9.30;99.90;;;;;;5096199;28;20292;-65
2022/03/15 10:15:21;;;;;;;34.60;19.92;;;9.40;99.90;;;;;;5106012;28;20086;-64
2022/03/15 10:17:48;;;;;;;35.05;21.80;;;9.50;99.90;;;;;;5104886;28;20115;-64
2022/03/15 10:20:18;;;;;;;32.07;20.10;;;9.50;99.90;;;;;;5106214;28;20050;-65
2022/03/15 10:23:10;;;;;;;39.92;20.90;;;9.60;99.90;;;;;;5104541;28;20051;-65
2022/03/15 10:25:37;;;;;;;47.38;20.08;;;9.60;99.90;;;;;;5113198;28;20048;-66
2022/03/15 10:28:06;;;;;;;34.35;20.90;;;9.60;99.90;;;;;;5104968;28;20040;-69
2022/03/15 10:30:34;;;;;;;37.78;21.48;;;9.60;99.90;;;;;;5106121;28;20105;-64
2022/03/15 10:32:59;;;;;;;29.70;19.52;;;9.60;99.90;;;;;;5105481;28;20080;-64
2022/03/15 10:35:31;;;;;;;32.45;20.55;;;9.60;99.90;;;;;;5108006;28;20063;-70
2022/03/15 10:37:57;;;;;;;34.20;20.63;;;9.50;99.90;;;;;;5101099;28;20036;-65
2022/03/15 10:40:39;;;;;;;33.22;19.83;;;9.50;99.90;;;;;;5108843;28;20039;-68
2022/03/15 10:43:21;;;;;;;32.30;21.25;;;9.50;99.90;;;;;;5110665;27;20048;-68
2022/03/15 10:45:50;;;;;;;35.60;19.00;;;9.60;99.90;;;;;;5105320;28;20040;-64
2022/03/15 10:48:23;;;;;;;30.80;21.25;;;9.60;99.90;;;;;;5105971;28;20083;-78
2022/03/15 10:50:56;;;;;;;36.08;19.77;;;9.60;99.90;;;;;;5086095;28;20048;-68
2022/03/15 10:53:25;;;;;;;36.33;18.63;;;9.70;99.90;;;;;;5085719;28;20048;-70
2022/03/15 10:56:07;;;;;;;30.58;20.02;;;9.60;99.90;;;;;;5084938;28;20057;-64
2022/03/15 10:58:34;;;;;;;29.92;17.65;;;9.70;99.90;;;;;;5085265;28;20036;-66
2022/03/15 11:01:00;;;;;;;32.22;18.65;;;9.80;99.90;;;;;;5103450;28;20048;-65
2022/03/15 11:03:29;;;;;;;32.17;20.17;;;9.80;99.90;;;;;;5105589;28;20042;-64
2022/03/15 11:06:03;;;;;;;33.95;19.27;;;9.90;99.90;;;;;;5115871;28;20109;-62
2022/03/15 11:08:29;;;;;;;34.38;20.83;;;9.90;99.90;;;;;;5105113;28;20055;-61
2022/03/15 11:10:55;;;;;;;28.92;19.00;;;9.90;99.90;;;;;;5090548;28;20103;-71
2022/03/15 11:13:29;;;;;;;27.23;17.15;;;10.00;99.90;;;;;;5104852;28;20044;-69
2022/03/15 11:15:56;;;;;;;26.88;16.27;;;10.10;99.90;;;;;;5101769;28;20051;-65
2022/03/15 11:18:25;;;;;;;34.63;16.83;;;10.10;99.90;;;;;;5089247;28;20110;-64
2022/03/15 11:20:52;;;;;;;33.75;18.08;;;10.30;99.90;;;;;;5084499;28;20048;-72
2022/03/15 11:23:20;;;;;;;25.40;14.90;;;10.30;99.90;;;;;;5097383;28;20044;-67
2022/03/15 11:25:48;;;;;;;22.00;13.48;;;10.30;99.90;;;;;;5103320;28;20076;-63
2022/03/15 11:28:25;;;;;;;23.45;14.73;;;10.40;99.90;;;;;;5102535;28;20111;-69
2022/03/15 11:30:53;;;;;;;26.98;15.32;;;10.40;99.90;;;;;;5093367;28;20043;-71
2022/03/15 11:33:18;;;;;;;23.73;13.32;;;10.30;99.90;;;;;;5104309;28;20052;-70
2022/03/15 11:35:44;;;;;;;25.83;14.65;;;10.40;99.90;;;;;;5102373;28;20048;-69
2022/03/15 11:38:13;;;;;;;27.83;15.52;;;10.30;99.90;;;;;;5103850;28;20036;-64
2022/03/15 11:40:40;;;;;;;28.60;16.73;;;10.30;99.90;;;;;;5088794;28;20082;-64
2022/03/15 11:43:40;;;;;;;20.65;13.43;;;10.20;99.90;;;;;;5084094;28;20146;-63
2022/03/15 11:46:10;;;;;;;;;;;10.20;99.90;;;;;;5104661;28;20043;-63
2022/03/15 11:48:53;;;;;;;23.77;14.75;;;10.20;99.90;;;;;;5094417;28;20015;-69
2022/03/15 11:51:44;;;;;;;27.23;13.98;;;10.10;99.90;;;;;;5089850;28;20067;-71
2022/03/15 11:54:28;;;;;;;22.70;13.52;;;10.20;99.90;;;;;;5090610;28;20095;-70
2022/03/15 11:56:58;;;;;;;23.63;13.40;;;10.10;99.90;;;;;;5093578;28;20048;-68
2022/03/15 11:59:24;;;;;;;20.75;14.90;;;10.10;99.90;;;;;;5096841;28;20041;-68
2022/03/15 12:01:52;;;;;;;22.23;13.68;;;10.10;99.90;;;;;;5085433;28;20067;-68
2022/03/15 12:04:23;;;;;;;26.35;14.57;;;10.10;99.90;;;;;;5090485;28;20048;-69
2022/03/15 12:06:54;;;;;;;20.75;13.10;;;10.10;99.90;;;;;;5102829;28;21055;-64
2022/03/15 12:09:22;;;;;;;21.42;14.32;;;10.00;99.90;;;;;;5104812;28;20063;-65
2022/03/15 12:12:06;;;;;;;21.48;14.80;;;10.00;99.90;;;;;;5097792;28;20063;-64
2022/03/15 12:14:40;;;;;;;26.02;14.25;;;9.90;99.90;;;;;;5101918;28;20044;-65
2022/03/15 12:17:07;;;;;;;24.83;14.18;;;9.90;99.90;;;;;;5099384;28;20044;-65
2022/03/15 12:19:47;;;;;;;28.10;13.02;;;9.90;99.90;;;;;;5092498;28;20044;-70
2022/03/15 12:22:28;;;;;;;20.65;9.98;;;9.90;99.90;;;;;;5101434;28;20040;-64
2022/03/15 12:25:04;;;;;;;20.73;11.43;;;9.90;99.90;;;;;;5102165;28;20397;-65
2022/03/15 12:27:30;;;;;;;21.73;10.65;;;9.80;99.90;;;;;;5094877;28;20048;-70
2022/03/15 12:29:58;;;;;;;24.30;11.38;;;9.80;99.90;;;;;;5097263;28;20040;-69
2022/03/15 12:32:25;;;;;;;21.02;10.90;;;9.70;99.90;;;;;;5103913;28;20276;-67
2022/03/15 12:34:56;;;;;;;20.60;11.15;;;9.70;99.90;;;;;;5101215;28;20044;-66
2022/03/15 12:37:37;;;;;;;22.05;10.35;;;9.80;99.90;;;;;;5102261;28;20189;-64
2022/03/15 12:40:06;;;;;;;21.15;10.93;;;9.90;99.90;;;;;;5103517;28;20056;-62